sensor_id;sensor_type;location;lat;lon;timestamp;noise_LAeq;noise_LA_min;noise_LA_max;noise_LA01;noise_LA95
186;Laerm;55473;48.800;9.002;2023-02-01T00:00:11;37.49;34.60;44.27;;
186;Laerm;55473;48.800;9.002;2023-02-01T00:02:37;37.67;34.61;49.37;;
186;Laerm;55473;48.800;9.002;2023-02-01T00:05:08;37.69;34.90;47.66;;
186;Laerm;55473;48.800;9.002;2023-02-01T00:07:35;38.28;35.48;47.57;;
186;Laerm;55473;48.800;9.002;2023-02-01T00:10:03;37.40;35.24;45.62;;
186;Laerm;55473;48.800;9.002;2023-02-01T00:12:30;39.43;34.99;47.60;;
186;Laerm;55473;48.800;9.002;2023-02-01T00:14:56;41.72;35.14;54.94;;
186;Laerm;55473;48.800;9.002;2023-02-01T00:17:22;44.48;34.66;58.80;;
186;Laerm;55473;48.800;9.002;2023-02-01T00:19:48;55.33;34.61;66.01;;
186;Laerm;55473;48.800;9.002;2023-02-01T00:22:14;37.60;34.70;43.90;;
186;Laerm;55473;48.800;9.002;2023-02-01T00:24:40;37.09;34.29;44.11;;
186;Laerm;55473;48.800;9.002;2023-02-01T00:27:06;37.10;34.07;46.35;;
186;Laerm;55473;48.800;9.002;2023-02-01T00:29:32;36.22;33.90;47.21;;
186;Laerm;55473;48.800;9.002;2023-02-01T00:31:58;37.51;34.53;45.38;;
186;Laerm;55473;48.800;9.002;2023-02-01T00:34:23;36.46;34.36;45.17;;
186;Laerm;55473;48.800;9.002;2023-02-01T00:36:50;36.12;33.96;48.25;;
186;Laerm;55473;48.800;9.002;2023-02-01T00:39:16;35.90;34.08;43.73;;
186;Laerm;55473;48.800;9.002;2023-02-01T00:41:42;35.86;33.98;46.96;;
186;Laerm;55473;48.800;9.002;2023-02-01T00:44:08;38.19;34.04;46.32;;
186;Laerm;55473;48.800;9.002;2023-02-01T00:46:34;36.56;33.91;44.06;;
186;Laerm;55473;48.800;9.002;2023-02-01T00:49:01;35.92;33.90;43.91;;
186;Laerm;55473;48.800;9.002;2023-02-01T00:51:28;36.90;33.89;45.64;;
186;Laerm;55473;48.800;9.002;2023-02-01T00:53:55;36.91;33.93;44.38;;
186;Laerm;55473;48.800;9.002;2023-02-01T00:56:21;36.45;33.83;45.89;;
186;Laerm;55473;48.800;9.002;2023-02-01T00:58:47;35.93;33.63;43.72;;
186;Laerm;55473;48.800;9.002;2023-02-01T01:01:23;36.85;33.81;47.79;;
186;Laerm;55473;48.800;9.002;2023-02-01T01:03:56;35.64;33.55;44.54;;
186;Laerm;55473;48.800;9.002;2023-02-01T01:06:29;35.85;33.53;44.16;;
186;Laerm;55473;48.800;9.002;2023-02-01T01:08:58;35.98;33.94;44.56;;
186;Laerm;55473;48.800;9.002;2023-02-01T01:11:28;37.21;33.74;46.02;;
186;Laerm;55473;48.800;9.002;2023-02-01T01:13:56;36.51;33.88;43.29;;
186;Laerm;55473;48.800;9.002;2023-02-01T01:16:26;37.34;33.97;46.93;;
186;Laerm;55473;48.800;9.002;2023-02-01T01:18:53;36.72;34.18;44.30;;
186;Laerm;55473;48.800;9.002;2023-02-01T01:21:19;36.07;33.89;42.95;;
186;Laerm;55473;48.800;9.002;2023-02-01T01:23:47;36.03;33.56;45.18;;
186;Laerm;55473;48.800;9.002;2023-02-01T01:26:26;36.16;33.94;43.50;;
186;Laerm;55473;48.800;9.002;2023-02-01T01:28:56;36.80;34.35;45.23;;
186;Laerm;55473;48.800;9.002;2023-02-01T01:31:22;36.75;34.25;46.68;;
186;Laerm;55473;48.800;9.002;2023-02-01T01:33:55;36.69;34.31;44.19;;
186;Laerm;55473;48.800;9.002;2023-02-01T01:36:22;36.32;34.14;45.60;;
186;Laerm;55473;48.800;9.002;2023-02-01T01:38:48;36.16;34.05;44.82;;
186;Laerm;55473;48.800;9.002;2023-02-01T01:41:22;36.60;34.35;45.74;;
186;Laerm;55473;48.800;9.002;2023-02-01T01:51:29;36.34;33.77;45.52;;
186;Laerm;55473;48.800;9.002;2023-02-01T01:56:57;35.82;33.23;44.46;;
186;Laerm;55473;48.800;9.002;2023-02-01T01:59:25;36.77;33.48;45.74;;
186;Laerm;55473;48.800;9.002;2023-02-01T02:01:52;35.70;33.63;43.45;;
186;Laerm;55473;48.800;9.002;2023-02-01T02:04:19;35.67;33.69;45.57;;
186;Laerm;55473;48.800;9.002;2023-02-01T02:07:01;35.79;33.41;43.44;;
186;Laerm;55473;48.800;9.002;2023-02-01T02:09:28;35.73;33.77;46.29;;
186;Laerm;55473;48.800;9.002;2023-02-01T02:11:55;35.64;33.66;43.87;;
186;Laerm;55473;48.800;9.002;2023-02-01T02:14:23;36.78;33.88;46.05;;
186;Laerm;55473;48.800;9.002;2023-02-01T02:33:03;37.27;34.03;46.47;;
186;Laerm;55473;48.800;9.002;2023-02-01T02:47:32;36.63;34.18;45.35;;
186;Laerm;55473;48.800;9.002;2023-02-01T02:50:23;37.34;34.65;51.42;;
186;Laerm;55473;48.800;9.002;2023-02-01T02:53:28;37.37;34.25;45.80;;
186;Laerm;55473;48.800;9.002;2023-02-01T02:56:21;36.08;33.77;45.28;;
186;Laerm;55473;48.800;9.002;2023-02-01T02:59:11;36.22;34.11;44.60;;
186;Laerm;55473;48.800;9.002;2023-02-01T03:01:56;42.20;34.22;54.93;;
186;Laerm;55473;48.800;9.002;2023-02-01T03:04:42;39.40;34.61;50.58;;
186;Laerm;55473;48.800;9.002;2023-02-01T03:07:49;36.32;34.09;44.95;;
186;Laerm;55473;48.800;9.002;2023-02-01T03:10:42;38.28;34.60;45.65;;
186;Laerm;55473;48.800;9.002;2023-02-01T03:19:14;39.28;34.25;53.03;;
186;Laerm;55473;48.800;9.002;2023-02-01T03:21:57;36.55;34.30;45.42;;
186;Laerm;55473;48.800;9.002;2023-02-01T03:27:56;37.79;35.20;45.31;;
186;Laerm;55473;48.800;9.002;2023-02-01T03:30:36;38.38;35.84;44.68;;
186;Laerm;55473;48.800;9.002;2023-02-01T03:33:07;39.94;36.29;45.83;;
186;Laerm;55473;48.800;9.002;2023-02-01T03:38:32;44.27;37.24;56.14;;
186;Laerm;55473;48.800;9.002;2023-02-01T03:41:17;41.51;36.75;50.47;;
186;Laerm;55473;48.800;9.002;2023-02-01T03:44:01;39.96;37.05;51.55;;
186;Laerm;55473;48.800;9.002;2023-02-01T03:46:49;39.96;36.53;48.41;;
186;Laerm;55473;48.800;9.002;2023-02-01T03:49:30;45.76;36.69;58.12;;
186;Laerm;55473;48.800;9.002;2023-02-01T03:51:59;57.40;37.63;65.98;;
186;Laerm;55473;48.800;9.002;2023-02-01T03:54:28;40.87;37.65;46.35;;
186;Laerm;55473;48.800;9.002;2023-02-01T03:57:00;39.00;36.25;46.67;;
186;Laerm;55473;48.800;9.002;2023-02-01T03:59:28;43.21;36.45;54.83;;
186;Laerm;55473;48.800;9.002;2023-02-01T04:01:54;41.11;36.91;60.01;;
186;Laerm;55473;48.800;9.002;2023-02-01T04:04:20;39.52;37.03;50.09;;
186;Laerm;55473;48.800;9.002;2023-02-01T04:06:48;39.87;36.87;45.51;;
186;Laerm;55473;48.800;9.002;2023-02-01T04:09:14;40.25;36.64;55.98;;
186;Laerm;55473;48.800;9.002;2023-02-01T04:11:40;40.80;36.75;59.75;;
186;Laerm;55473;48.800;9.002;2023-02-01T04:14:06;41.86;35.92;53.23;;
186;Laerm;55473;48.800;9.002;2023-02-01T04:16:33;41.06;37.02;48.66;;
186;Laerm;55473;48.800;9.002;2023-02-01T04:19:00;47.28;38.56;59.41;;
186;Laerm;55473;48.800;9.002;2023-02-01T04:21:27;40.49;36.99;46.96;;
186;Laerm;55473;48.800;9.002;2023-02-01T04:23:54;41.27;37.76;48.50;;
186;Laerm;55473;48.800;9.002;2023-02-01T04:26:21;41.21;37.31;47.02;;
186;Laerm;55473;48.800;9.002;2023-02-01T04:28:47;45.07;37.28;58.51;;
186;Laerm;55473;48.800;9.002;2023-02-01T04:31:17;42.33;38.06;54.26;;
186;Laerm;55473;48.800;9.002;2023-02-01T04:33:43;46.53;37.77;58.14;;
186;Laerm;55473;48.800;9.002;2023-02-01T04:36:10;42.72;37.55;52.07;;
186;Laerm;55473;48.800;9.002;2023-02-01T04:38:36;41.77;37.98;50.98;;
186;Laerm;55473;48.800;9.002;2023-02-01T04:41:02;42.31;37.22;52.61;;
186;Laerm;55473;48.800;9.002;2023-02-01T04:43:28;42.19;36.79;52.31;;
186;Laerm;55473;48.800;9.002;2023-02-01T04:45:54;43.88;38.48;57.62;;
186;Laerm;55473;48.800;9.002;2023-02-01T04:48:20;47.99;38.46;60.95;;
186;Laerm;55473;48.800;9.002;2023-02-01T04:50:48;41.36;38.15;48.38;;
186;Laerm;55473;48.800;9.002;2023-02-01T04:53:15;41.64;38.33;46.79;;
186;Laerm;55473;48.800;9.002;2023-02-01T04:55:42;43.85;39.36;53.01;;
186;Laerm;55473;48.800;9.002;2023-02-01T04:58:08;44.49;40.04;60.03;;
186;Laerm;55473;48.800;9.002;2023-02-01T05:00:34;45.09;38.23;56.82;;
186;Laerm;55473;48.800;9.002;2023-02-01T05:03:00;47.77;38.66;56.61;;
186;Laerm;55473;48.800;9.002;2023-02-01T05:05:27;44.12;39.48;49.36;;
186;Laerm;55473;48.800;9.002;2023-02-01T05:07:53;58.87;37.95;68.30;;
186;Laerm;55473;48.800;9.002;2023-02-01T05:10:19;43.36;38.96;49.97;;
186;Laerm;55473;48.800;9.002;2023-02-01T05:12:45;44.60;38.85;55.58;;
186;Laerm;55473;48.800;9.002;2023-02-01T05:15:30;45.12;39.84;54.99;;
186;Laerm;55473;48.800;9.002;2023-02-01T05:17:56;47.89;40.92;60.42;;
186;Laerm;55473;48.800;9.002;2023-02-01T05:20:23;45.61;39.68;52.66;;
186;Laerm;55473;48.800;9.002;2023-02-01T05:22:50;43.40;38.70;49.55;;
186;Laerm;55473;48.800;9.002;2023-02-01T05:25:16;45.01;40.50;52.52;;
186;Laerm;55473;48.800;9.002;2023-02-01T05:27:43;42.86;39.38;47.91;;
186;Laerm;55473;48.800;9.002;2023-02-01T05:30:09;46.41;39.88;54.29;;
186;Laerm;55473;48.800;9.002;2023-02-01T05:32:35;50.95;40.07;64.01;;
186;Laerm;55473;48.800;9.002;2023-02-01T05:35:01;44.80;39.98;50.04;;
186;Laerm;55473;48.800;9.002;2023-02-01T05:37:27;42.87;39.31;48.22;;
186;Laerm;55473;48.800;9.002;2023-02-01T05:39:53;44.43;39.91;54.58;;
186;Laerm;55473;48.800;9.002;2023-02-01T05:42:19;46.19;40.06;53.46;;
186;Laerm;55473;48.800;9.002;2023-02-01T05:44:45;47.49;41.28;59.94;;
186;Laerm;55473;48.800;9.002;2023-02-01T05:47:11;48.82;41.78;56.03;;
186;Laerm;55473;48.800;9.002;2023-02-01T05:49:38;49.28;41.98;59.97;;
186;Laerm;55473;48.800;9.002;2023-02-01T05:52:04;57.11;41.56;67.69;;
186;Laerm;55473;48.800;9.002;2023-02-01T05:54:30;47.66;41.41;60.73;;
186;Laerm;55473;48.800;9.002;2023-02-01T05:56:55;46.03;42.05;66.62;;
186;Laerm;55473;48.800;9.002;2023-02-01T05:59:21;48.15;41.91;64.64;;
186;Laerm;55473;48.800;9.002;2023-02-01T06:01:47;49.85;43.07;62.34;;
186;Laerm;55473;48.800;9.002;2023-02-01T06:04:13;50.34;42.90;62.55;;
186;Laerm;55473;48.800;9.002;2023-02-01T06:06:39;51.06;42.08;68.76;;
186;Laerm;55473;48.800;9.002;2023-02-01T06:09:05;48.08;41.57;68.03;;
186;Laerm;55473;48.800;9.002;2023-02-01T06:11:31;49.79;41.48;66.23;;
186;Laerm;55473;48.800;9.002;2023-02-01T06:13:57;47.20;42.18;60.00;;
186;Laerm;55473;48.800;9.002;2023-02-01T06:16:23;48.12;42.61;58.45;;
186;Laerm;55473;48.800;9.002;2023-02-01T06:18:49;52.72;44.15;69.43;;
186;Laerm;55473;48.800;9.002;2023-02-01T06:21:15;50.96;43.84;66.00;;
186;Laerm;55473;48.800;9.002;2023-02-01T06:23:54;49.42;43.43;69.16;;
186;Laerm;55473;48.800;9.002;2023-02-01T06:26:21;48.45;43.23;57.13;;
186;Laerm;55473;48.800;9.002;2023-02-01T06:28:47;48.32;42.33;61.88;;
186;Laerm;55473;48.800;9.002;2023-02-01T06:31:13;48.36;42.35;60.75;;
186;Laerm;55473;48.800;9.002;2023-02-01T06:33:39;51.38;45.20;66.13;;
186;Laerm;55473;48.800;9.002;2023-02-01T06:36:09;51.00;44.65;66.96;;
186;Laerm;55473;48.800;9.002;2023-02-01T06:38:35;58.02;43.70;70.38;;
186;Laerm;55473;48.800;9.002;2023-02-01T06:41:02;47.52;43.68;64.18;;
186;Laerm;55473;48.800;9.002;2023-02-01T06:43:29;49.21;44.38;60.83;;
186;Laerm;55473;48.800;9.002;2023-02-01T06:46:03;49.17;43.03;66.61;;
186;Laerm;55473;48.800;9.002;2023-02-01T06:48:30;49.77;42.80;63.92;;
186;Laerm;55473;48.800;9.002;2023-02-01T06:50:56;49.20;43.50;59.90;;
186;Laerm;55473;48.800;9.002;2023-02-01T06:53:22;49.15;44.44;60.94;;
186;Laerm;55473;48.800;9.002;2023-02-01T06:55:58;48.37;43.27;64.58;;
186;Laerm;55473;48.800;9.002;2023-02-01T06:58:32;49.55;44.62;60.02;;
186;Laerm;55473;48.800;9.002;2023-02-01T07:01:07;46.67;42.50;56.99;;
186;Laerm;55473;48.800;9.002;2023-02-01T07:03:34;50.03;42.02;61.89;;
186;Laerm;55473;48.800;9.002;2023-02-01T07:06:00;49.11;43.63;65.31;;
186;Laerm;55473;48.800;9.002;2023-02-01T07:08:31;47.77;42.34;67.45;;
186;Laerm;55473;48.800;9.002;2023-02-01T07:11:07;46.49;43.13;56.95;;
186;Laerm;55473;48.800;9.002;2023-02-01T07:13:34;54.35;43.56;68.20;;
186;Laerm;55473;48.800;9.002;2023-02-01T07:16:04;46.72;41.49;62.17;;
186;Laerm;55473;48.800;9.002;2023-02-01T07:18:31;51.28;42.77;62.83;;
186;Laerm;55473;48.800;9.002;2023-02-01T07:20:58;48.65;42.56;59.73;;
186;Laerm;55473;48.800;9.002;2023-02-01T07:23:25;47.46;42.20;58.60;;
186;Laerm;55473;48.800;9.002;2023-02-01T07:25:58;47.20;41.09;59.01;;
186;Laerm;55473;48.800;9.002;2023-02-01T07:28:25;48.15;41.90;58.37;;
186;Laerm;55473;48.800;9.002;2023-02-01T07:30:51;47.99;41.91;59.43;;
186;Laerm;55473;48.800;9.002;2023-02-01T07:33:23;50.57;41.51;63.42;;
186;Laerm;55473;48.800;9.002;2023-02-01T07:35:50;49.82;43.80;62.05;;
186;Laerm;55473;48.800;9.002;2023-02-01T07:38:17;47.18;42.71;60.72;;
186;Laerm;55473;48.800;9.002;2023-02-01T07:40:43;47.81;42.67;62.47;;
186;Laerm;55473;48.800;9.002;2023-02-01T07:43:09;48.60;43.50;63.24;;
186;Laerm;55473;48.800;9.002;2023-02-01T07:45:36;47.84;42.14;58.89;;
186;Laerm;55473;48.800;9.002;2023-02-01T07:48:03;51.30;42.47;70.19;;
186;Laerm;55473;48.800;9.002;2023-02-01T07:50:29;50.35;43.76;69.18;;
186;Laerm;55473;48.800;9.002;2023-02-01T07:52:55;48.14;42.46;63.07;;
186;Laerm;55473;48.800;9.002;2023-02-01T07:55:23;46.93;41.87;61.85;;
186;Laerm;55473;48.800;9.002;2023-02-01T07:57:50;46.47;41.71;59.25;;
186;Laerm;55473;48.800;9.002;2023-02-01T08:00:16;47.90;41.98;59.70;;
186;Laerm;55473;48.800;9.002;2023-02-01T08:03:01;49.30;42.40;63.10;;
186;Laerm;55473;48.800;9.002;2023-02-01T08:05:28;49.09;41.74;60.73;;
186;Laerm;55473;48.800;9.002;2023-02-01T08:07:54;47.51;42.20;68.38;;
186;Laerm;55473;48.800;9.002;2023-02-01T08:10:20;46.00;41.49;58.19;;
186;Laerm;55473;48.800;9.002;2023-02-01T08:12:46;47.38;41.33;66.89;;
186;Laerm;55473;48.800;9.002;2023-02-01T08:15:18;48.10;43.50;66.40;;
186;Laerm;55473;48.800;9.002;2023-02-01T08:17:49;50.03;43.89;62.55;;
186;Laerm;55473;48.800;9.002;2023-02-01T08:20:15;48.58;41.91;59.73;;
186;Laerm;55473;48.800;9.002;2023-02-01T08:22:41;55.50;44.82;63.22;;
186;Laerm;55473;48.800;9.002;2023-02-01T08:25:08;50.14;43.74;62.23;;
186;Laerm;55473;48.800;9.002;2023-02-01T08:27:34;47.75;43.93;59.48;;
186;Laerm;55473;48.800;9.002;2023-02-01T08:30:00;47.78;43.97;63.25;;
186;Laerm;55473;48.800;9.002;2023-02-01T08:32:27;53.60;44.38;68.77;;
186;Laerm;55473;48.800;9.002;2023-02-01T08:34:53;50.26;43.24;67.73;;
186;Laerm;55473;48.800;9.002;2023-02-01T08:37:20;50.38;42.29;65.07;;
186;Laerm;55473;48.800;9.002;2023-02-01T08:39:46;46.97;42.09;57.12;;
186;Laerm;55473;48.800;9.002;2023-02-01T08:42:12;46.99;41.72;65.11;;
186;Laerm;55473;48.800;9.002;2023-02-01T08:44:57;45.96;41.61;63.27;;
186;Laerm;55473;48.800;9.002;2023-02-01T08:47:23;50.14;42.95;66.46;;
186;Laerm;55473;48.800;9.002;2023-02-01T08:49:49;50.45;42.41;75.79;;
186;Laerm;55473;48.800;9.002;2023-02-01T08:52:15;47.18;42.19;66.61;;
186;Laerm;55473;48.800;9.002;2023-02-01T08:54:41;46.22;42.23;57.80;;
186;Laerm;55473;48.800;9.002;2023-02-01T08:57:07;45.91;41.68;56.94;;
186;Laerm;55473;48.800;9.002;2023-02-01T08:59:35;47.64;41.48;60.71;;
186;Laerm;55473;48.800;9.002;2023-02-01T09:02:01;50.96;42.98;65.04;;
186;Laerm;55473;48.800;9.002;2023-02-01T09:04:27;51.27;40.99;62.78;;
186;Laerm;55473;48.800;9.002;2023-02-01T09:06:53;46.72;41.25;60.52;;
186;Laerm;55473;48.800;9.002;2023-02-01T09:09:22;45.57;41.34;55.90;;
186;Laerm;55473;48.800;9.002;2023-02-01T09:11:48;47.61;41.80;63.95;;
186;Laerm;55473;48.800;9.002;2023-02-01T09:14:16;46.08;41.99;52.19;;
186;Laerm;55473;48.800;9.002;2023-02-01T09:16:42;47.49;40.90;59.91;;
186;Laerm;55473;48.800;9.002;2023-02-01T09:19:08;49.41;42.44;58.45;;
186;Laerm;55473;48.800;9.002;2023-02-01T09:21:34;46.99;42.46;58.30;;
186;Laerm;55473;48.800;9.002;2023-02-01T09:24:01;57.70;45.01;65.80;;
186;Laerm;55473;48.800;9.002;2023-02-01T09:26:26;47.02;42.59;54.24;;
186;Laerm;55473;48.800;9.002;2023-02-01T09:28:53;48.46;41.66;63.71;;
186;Laerm;55473;48.800;9.002;2023-02-01T09:31:19;50.13;44.10;66.03;;
186;Laerm;55473;48.800;9.002;2023-02-01T09:33:45;51.05;44.57;62.63;;
186;Laerm;55473;48.800;9.002;2023-02-01T09:36:11;47.78;44.57;53.38;;
186;Laerm;55473;48.800;9.002;2023-02-01T09:38:37;50.28;44.75;59.87;;
186;Laerm;55473;48.800;9.002;2023-02-01T09:41:24;48.56;42.52;56.80;;
186;Laerm;55473;48.800;9.002;2023-02-01T09:47:18;49.79;44.10;61.73;;
186;Laerm;55473;48.800;9.002;2023-02-01T09:49:56;52.74;41.29;66.55;;
186;Laerm;55473;48.800;9.002;2023-02-01T09:52:55;46.55;41.05;55.79;;
186;Laerm;55473;48.800;9.002;2023-02-01T09:55:40;47.37;41.32;64.46;;
186;Laerm;55473;48.800;9.002;2023-02-01T10:01:36;46.85;40.98;69.12;;
186;Laerm;55473;48.800;9.002;2023-02-01T10:04:08;49.52;41.32;69.43;;
186;Laerm;55473;48.800;9.002;2023-02-01T10:15:35;49.29;42.66;63.17;;
186;Laerm;55473;48.800;9.002;2023-02-01T10:18:15;48.74;41.06;63.77;;
186;Laerm;55473;48.800;9.002;2023-02-01T10:26:56;50.75;42.32;73.29;;
186;Laerm;55473;48.800;9.002;2023-02-01T10:29:37;49.23;42.56;69.63;;
186;Laerm;55473;48.800;9.002;2023-02-01T10:32:16;48.66;42.95;68.32;;
186;Laerm;55473;48.800;9.002;2023-02-01T10:34:48;48.09;41.74;67.47;;
186;Laerm;55473;48.800;9.002;2023-02-01T10:37:28;49.38;41.36;62.26;;
186;Laerm;55473;48.800;9.002;2023-02-01T10:39:59;49.14;42.42;62.34;;
186;Laerm;55473;48.800;9.002;2023-02-01T10:42:28;51.61;43.22;65.75;;
186;Laerm;55473;48.800;9.002;2023-02-01T10:45:00;48.06;42.60;62.25;;
186;Laerm;55473;48.800;9.002;2023-02-01T10:47:27;51.50;43.27;63.26;;
186;Laerm;55473;48.800;9.002;2023-02-01T10:53:20;48.16;42.27;59.28;;
186;Laerm;55473;48.800;9.002;2023-02-01T10:55:51;49.88;42.19;64.79;;
186;Laerm;55473;48.800;9.002;2023-02-01T10:58:27;49.86;44.11;63.52;;
186;Laerm;55473;48.800;9.002;2023-02-01T11:00:59;49.85;42.84;66.89;;
186;Laerm;55473;48.800;9.002;2023-02-01T11:03:44;50.14;42.70;61.80;;
186;Laerm;55473;48.800;9.002;2023-02-01T11:06:36;47.38;40.92;61.29;;
186;Laerm;55473;48.800;9.002;2023-02-01T11:11:32;46.57;40.86;59.27;;
186;Laerm;55473;48.800;9.002;2023-02-01T11:14:14;53.12;42.76;71.30;;
186;Laerm;55473;48.800;9.002;2023-02-01T11:16:57;52.22;42.67;63.94;;
186;Laerm;55473;48.800;9.002;2023-02-01T11:19:24;51.79;42.77;64.30;;
186;Laerm;55473;48.800;9.002;2023-02-01T11:21:57;49.44;42.73;63.23;;
186;Laerm;55473;48.800;9.002;2023-02-01T11:24:32;49.78;42.15;63.26;;
186;Laerm;55473;48.800;9.002;2023-02-01T11:27:02;47.23;41.45;61.91;;
186;Laerm;55473;48.800;9.002;2023-02-01T11:29:40;47.97;42.00;65.21;;
186;Laerm;55473;48.800;9.002;2023-02-01T11:32:10;50.55;42.93;71.55;;
186;Laerm;55473;48.800;9.002;2023-02-01T11:34:45;52.14;42.90;64.91;;
186;Laerm;55473;48.800;9.002;2023-02-01T11:37:38;50.67;42.93;64.45;;
186;Laerm;55473;48.800;9.002;2023-02-01T11:43:22;51.50;43.31;66.27;;
186;Laerm;55473;48.800;9.002;2023-02-01T11:46:01;50.05;42.10;63.66;;
186;Laerm;55473;48.800;9.002;2023-02-01T11:48:31;50.06;42.54;64.03;;
186;Laerm;55473;48.800;9.002;2023-02-01T12:12:31;47.74;42.92;59.33;;
186;Laerm;55473;48.800;9.002;2023-02-01T12:15:19;50.99;43.50;69.21;;
186;Laerm;55473;48.800;9.002;2023-02-01T12:20:52;51.03;42.74;67.12;;
186;Laerm;55473;48.800;9.002;2023-02-01T12:23:41;47.60;41.91;60.82;;
186;Laerm;55473;48.800;9.002;2023-02-01T12:26:50;53.70;43.42;80.06;;
186;Laerm;55473;48.800;9.002;2023-02-01T12:32:45;53.04;44.47;68.53;;
186;Laerm;55473;48.800;9.002;2023-02-01T12:43:56;51.52;42.67;65.98;;
186;Laerm;55473;48.800;9.002;2023-02-01T12:46:51;49.39;44.18;67.22;;
186;Laerm;55473;48.800;9.002;2023-02-01T12:49:26;51.29;43.82;63.03;;
186;Laerm;55473;48.800;9.002;2023-02-01T12:52:13;54.10;43.17;71.38;;
186;Laerm;55473;48.800;9.002;2023-02-01T12:55:27;49.12;41.17;70.20;;
186;Laerm;55473;48.800;9.002;2023-02-01T13:01:02;46.53;40.69;60.12;;
186;Laerm;55473;48.800;9.002;2023-02-01T13:10:45;46.05;41.31;60.97;;
186;Laerm;55473;48.800;9.002;2023-02-01T13:13:36;47.19;41.76;62.46;;
186;Laerm;55473;48.800;9.002;2023-02-01T13:16:27;51.25;43.43;72.31;;
186;Laerm;55473;48.800;9.002;2023-02-01T13:21:46;45.36;40.43;58.37;;
186;Laerm;55473;48.800;9.002;2023-02-01T13:24:47;48.27;42.50;64.44;;
186;Laerm;55473;48.800;9.002;2023-02-01T13:27:16;46.23;39.98;60.45;;
186;Laerm;55473;48.800;9.002;2023-02-01T13:30:00;48.81;42.59;61.77;;
186;Laerm;55473;48.800;9.002;2023-02-01T13:41:53;47.97;41.69;59.52;;
186;Laerm;55473;48.800;9.002;2023-02-01T13:47:39;51.16;43.66;64.85;;
186;Laerm;55473;48.800;9.002;2023-02-01T13:50:23;48.65;41.24;62.15;;
186;Laerm;55473;48.800;9.002;2023-02-01T13:52:59;50.97;41.89;66.87;;
186;Laerm;55473;48.800;9.002;2023-02-01T13:55:33;50.61;41.55;64.46;;
186;Laerm;55473;48.800;9.002;2023-02-01T14:09:11;46.73;41.25;60.37;;
186;Laerm;55473;48.800;9.002;2023-02-01T14:11:51;49.55;41.68;73.12;;
186;Laerm;55473;48.800;9.002;2023-02-01T14:24:55;47.04;41.65;63.24;;
186;Laerm;55473;48.800;9.002;2023-02-01T14:27:30;50.45;41.16;82.69;;
186;Laerm;55473;48.800;9.002;2023-02-01T14:30:06;48.26;42.44;65.61;;
186;Laerm;55473;48.800;9.002;2023-02-01T14:32:41;59.11;42.92;78.72;;
186;Laerm;55473;48.800;9.002;2023-02-01T14:35:24;50.57;44.26;64.81;;
186;Laerm;55473;48.800;9.002;2023-02-01T14:37:58;50.75;42.94;61.24;;
186;Laerm;55473;48.800;9.002;2023-02-01T14:40:27;49.85;42.14;64.97;;
186;Laerm;55473;48.800;9.002;2023-02-01T14:42:55;48.72;41.99;67.51;;
186;Laerm;55473;48.800;9.002;2023-02-01T14:59:01;49.80;41.72;65.17;;
186;Laerm;55473;48.800;9.002;2023-02-01T15:01:35;50.05;41.99;65.79;;
186;Laerm;55473;48.800;9.002;2023-02-01T15:04:11;54.42;41.95;63.26;;
186;Laerm;55473;48.800;9.002;2023-02-01T15:07:04;46.81;41.16;58.76;;
186;Laerm;55473;48.800;9.002;2023-02-01T15:15:24;46.70;40.45;60.87;;
186;Laerm;55473;48.800;9.002;2023-02-01T15:17:58;48.66;42.99;57.83;;
186;Laerm;55473;48.800;9.002;2023-02-01T15:20:31;47.41;40.73;60.04;;
186;Laerm;55473;48.800;9.002;2023-02-01T15:23:05;53.16;42.13;64.49;;
186;Laerm;55473;48.800;9.002;2023-02-01T15:25:38;50.14;42.24;70.11;;
186;Laerm;55473;48.800;9.002;2023-02-01T15:28:05;51.60;41.62;70.37;;
186;Laerm;55473;48.800;9.002;2023-02-01T15:30:35;50.18;41.78;64.90;;
186;Laerm;55473;48.800;9.002;2023-02-01T15:33:17;47.18;42.16;59.35;;
186;Laerm;55473;48.800;9.002;2023-02-01T15:35:50;48.71;41.75;68.17;;
186;Laerm;55473;48.800;9.002;2023-02-01T15:41:09;45.91;40.73;57.33;;
186;Laerm;55473;48.800;9.002;2023-02-01T15:43:46;47.17;41.30;57.09;;
186;Laerm;55473;48.800;9.002;2023-02-01T15:48:55;48.35;41.77;60.11;;
186;Laerm;55473;48.800;9.002;2023-02-01T15:51:27;48.29;41.66;64.05;;
186;Laerm;55473;48.800;9.002;2023-02-01T15:54:07;49.04;42.13;60.53;;
186;Laerm;55473;48.800;9.002;2023-02-01T15:56:41;46.00;41.28;58.92;;
186;Laerm;55473;48.800;9.002;2023-02-01T15:59:17;48.72;40.55;63.02;;
186;Laerm;55473;48.800;9.002;2023-02-01T16:01:44;50.33;42.91;66.69;;
186;Laerm;55473;48.800;9.002;2023-02-01T16:06:52;47.20;41.50;57.81;;
186;Laerm;55473;48.800;9.002;2023-02-01T16:09:25;49.47;41.93;63.45;;
186;Laerm;55473;48.800;9.002;2023-02-01T16:12:03;48.39;40.96;58.18;;
186;Laerm;55473;48.800;9.002;2023-02-01T16:14:29;45.15;40.39;53.18;;
186;Laerm;55473;48.800;9.002;2023-02-01T16:16:58;51.97;41.44;68.76;;
186;Laerm;55473;48.800;9.002;2023-02-01T16:19:24;50.82;42.04;68.34;;
186;Laerm;55473;48.800;9.002;2023-02-01T16:21:56;48.72;42.35;57.42;;
186;Laerm;55473;48.800;9.002;2023-02-01T16:24:24;50.49;41.52;68.32;;
186;Laerm;55473;48.800;9.002;2023-02-01T16:26:51;45.08;40.77;59.14;;
186;Laerm;55473;48.800;9.002;2023-02-01T16:29:18;45.57;40.06;55.32;;
186;Laerm;55473;48.800;9.002;2023-02-01T16:31:44;47.46;40.14;59.67;;
186;Laerm;55473;48.800;9.002;2023-02-01T16:34:15;48.47;42.33;58.17;;
186;Laerm;55473;48.800;9.002;2023-02-01T16:36:49;49.03;39.92;61.61;;
186;Laerm;55473;48.800;9.002;2023-02-01T16:39:23;45.85;40.25;59.07;;
186;Laerm;55473;48.800;9.002;2023-02-01T16:41:50;58.19;40.33;68.88;;
186;Laerm;55473;48.800;9.002;2023-02-01T16:44:16;46.42;39.47;59.32;;
186;Laerm;55473;48.800;9.002;2023-02-01T16:46:45;43.94;39.94;53.58;;
186;Laerm;55473;48.800;9.002;2023-02-01T16:49:24;46.43;40.22;63.01;;
186;Laerm;55473;48.800;9.002;2023-02-01T16:51:52;48.12;40.57;62.03;;
186;Laerm;55473;48.800;9.002;2023-02-01T16:54:22;46.41;40.79;60.55;;
186;Laerm;55473;48.800;9.002;2023-02-01T16:56:48;44.52;40.67;52.34;;
186;Laerm;55473;48.800;9.002;2023-02-01T16:59:14;49.19;41.52;61.60;;
186;Laerm;55473;48.800;9.002;2023-02-01T17:01:41;48.48;41.52;67.52;;
186;Laerm;55473;48.800;9.002;2023-02-01T17:04:09;55.99;41.67;64.57;;
186;Laerm;55473;48.800;9.002;2023-02-01T17:06:36;45.22;40.61;59.11;;
186;Laerm;55473;48.800;9.002;2023-02-01T17:09:05;45.24;40.25;54.44;;
186;Laerm;55473;48.800;9.002;2023-02-01T17:11:31;45.24;39.87;58.60;;
186;Laerm;55473;48.800;9.002;2023-02-01T17:14:19;46.03;41.08;57.84;;
186;Laerm;55473;48.800;9.002;2023-02-01T17:16:49;49.87;41.80;59.96;;
186;Laerm;55473;48.800;9.002;2023-02-01T17:19:20;47.48;40.09;59.50;;
186;Laerm;55473;48.800;9.002;2023-02-01T17:21:54;45.37;39.94;59.14;;
186;Laerm;55473;48.800;9.002;2023-02-01T17:24:25;44.07;40.72;52.91;;
186;Laerm;55473;48.800;9.002;2023-02-01T17:26:51;44.44;39.73;52.98;;
186;Laerm;55473;48.800;9.002;2023-02-01T17:29:18;44.94;39.80;53.57;;
186;Laerm;55473;48.800;9.002;2023-02-01T17:31:50;48.34;39.95;58.64;;
186;Laerm;55473;48.800;9.002;2023-02-01T17:34:17;51.27;39.14;67.63;;
186;Laerm;55473;48.800;9.002;2023-02-01T17:36:45;47.59;39.54;67.04;;
186;Laerm;55473;48.800;9.002;2023-02-01T17:39:12;49.25;40.86;62.86;;
186;Laerm;55473;48.800;9.002;2023-02-01T17:41:58;46.39;39.34;59.26;;
186;Laerm;55473;48.800;9.002;2023-02-01T17:44:24;52.82;40.52;62.24;;